Terminal Aerodrome Forecast
Issued by NWS

Current Version | Previous Version | Text Only | Print | Product List | Glossary On
Versions: 1 2 3 4 5 6 7 8 9 10
000
FTUS42 KMLB 201100
TAFLEE
TAF
KLEE 201130Z 2012/2112 VRB03KT P6SM SKC
     FM201500 16005KT P6SM FEW100 SCT250
     FM202300 07004KT P6SM BKN060 OVC120
     FM210700 VRB02KT 5SM BR BKN025 OVC060=

USA.gov is the U.S. government's official web portal to all federal, state and local government web resources and services.